KTIW Airport Information

Runway Information
Runway 17 Length 5002 ft width 150 ft
Elevation 289 ft Threshold 0 ft Heading 187
Runway 35 Length 5002 ft Width 150 ft
Elevation 292 ft Threshold 0 ft Heading 7
Airport Frequencies
Type A/D Name SEATTLE AP Frequency 120.1 MHZ
Type ATIS Name ATIS Frequency 124.05 MHZ
Type CTAF Name CTAF Frequency 118.5 MHZ
Type GND Name GND Frequency 121.8 MHZ
Type TWR Name TWR Frequency 118.5 MHZ
Type UNIC Name UNICOM Frequency 122.95 MHZ
Airport Navaids
Airport Weather Information & NOTAM
ADDS - METARS form results

(0001 UTC 19 January 2018)
 
METAR text: KTIW 182353Z 19013G17KT 10SM SCT030 BKN070 OVC090 07/05 A2977 RMK AO2 RAE12 SLP082 P0000 60012 T00720050 10089 20061 55006
Conditions at: KTIW (TACOMA , WA, US) observed 2353 UTC 18 January 2018
Temperature: 7.2°C (45°F)
Dewpoint: 5.0°C (41°F) [RH = 86%]
Pressure (altimeter): 29.77 inches Hg (1008.2 mb)
[Sea-level pressure: 1008.2 mb]
Winds: from the S (190 degrees) at 15 MPH (13 knots; 6.8 m/s)
gusting to 20 MPH (17 knots; 8.8 m/s)
Visibility: 10 or more miles (16+ km)
Ceiling: 7000 feet AGL
Clouds: scattered clouds at 3000 feet AGL
broken clouds at 7000 feet AGL
overcast cloud deck at 9000 feet AGL
Weather: no significant weather observed at this time